sensor_id;sensor_type;location;lat;lon;timestamp;pressure;altitude;pressure_sealevel;temperature;humidity
66945;BME280;53853;51.982;5.928;2022-07-01T00:01:15;101374.78;;;15.92;80.86
66945;BME280;53853;51.982;5.928;2022-07-01T00:03:45;101360.84;;;15.89;80.72
66945;BME280;53853;51.982;5.928;2022-07-01T00:06:18;101361.53;;;15.91;80.85
66945;BME280;53853;51.982;5.928;2022-07-01T00:08:48;101376.75;;;15.99;80.35
66945;BME280;53853;51.982;5.928;2022-07-01T00:11:18;101364.53;;;15.96;80.40
66945;BME280;53853;51.982;5.928;2022-07-01T00:13:48;101365.69;;;15.93;79.64
66945;BME280;53853;51.982;5.928;2022-07-01T00:16:20;101366.91;;;15.91;79.86
66945;BME280;53853;51.982;5.928;2022-07-01T00:18:50;101364.38;;;15.89;79.97
66945;BME280;53853;51.982;5.928;2022-07-01T00:21:20;101368.25;;;15.87;80.28
66945;BME280;53853;51.982;5.928;2022-07-01T00:23:50;101372.63;;;15.88;80.69
66945;BME280;53853;51.982;5.928;2022-07-01T00:26:20;101365.38;;;15.88;80.25
66945;BME280;53853;51.982;5.928;2022-07-01T00:28:49;101367.91;;;15.90;80.28
66945;BME280;53853;51.982;5.928;2022-07-01T00:31:22;101369.25;;;15.86;79.63
66945;BME280;53853;51.982;5.928;2022-07-01T00:33:52;101361.53;;;15.83;80.15
66945;BME280;53853;51.982;5.928;2022-07-01T00:36:22;101367.28;;;15.80;80.57
66945;BME280;53853;51.982;5.928;2022-07-01T00:38:52;101361.69;;;15.81;80.25
66945;BME280;53853;51.982;5.928;2022-07-01T00:41:22;101374.97;;;15.83;80.56
66945;BME280;53853;51.982;5.928;2022-07-01T00:43:52;101373.13;;;15.83;80.76
66945;BME280;53853;51.982;5.928;2022-07-01T00:46:26;101372.09;;;15.84;80.55
66945;BME280;53853;51.982;5.928;2022-07-01T00:48:58;101376.16;;;15.80;80.59
66945;BME280;53853;51.982;5.928;2022-07-01T00:51:29;101375.34;;;15.80;81.01
66945;BME280;53853;51.982;5.928;2022-07-01T00:53:59;101362.56;;;15.82;81.34
66945;BME280;53853;51.982;5.928;2022-07-01T00:56:30;101376.47;;;15.85;81.34
66945;BME280;53853;51.982;5.928;2022-07-01T00:59:00;101382.69;;;15.86;81.23
66945;BME280;53853;51.982;5.928;2022-07-01T01:01:33;101378.47;;;15.91;81.25
66945;BME280;53853;51.982;5.928;2022-07-01T01:04:03;101376.78;;;15.90;81.09
66945;BME280;53853;51.982;5.928;2022-07-01T01:06:34;101382.16;;;15.90;81.00
66945;BME280;53853;51.982;5.928;2022-07-01T01:09:04;101379.31;;;15.92;81.31
66945;BME280;53853;51.982;5.928;2022-07-01T01:11:34;101380.50;;;15.89;80.36
66945;BME280;53853;51.982;5.928;2022-07-01T01:14:04;101379.50;;;15.82;80.34
66945;BME280;53853;51.982;5.928;2022-07-01T01:16:36;101385.22;;;15.79;80.90
66945;BME280;53853;51.982;5.928;2022-07-01T01:19:06;101387.25;;;15.77;80.70
66945;BME280;53853;51.982;5.928;2022-07-01T01:21:39;101387.72;;;15.72;80.40
66945;BME280;53853;51.982;5.928;2022-07-01T01:24:12;101398.81;;;15.69;80.75
66945;BME280;53853;51.982;5.928;2022-07-01T01:26:41;101395.97;;;15.63;80.35
66945;BME280;53853;51.982;5.928;2022-07-01T01:29:11;101406.06;;;15.61;80.66
66945;BME280;53853;51.982;5.928;2022-07-01T01:31:41;101418.81;;;15.58;81.33
66945;BME280;53853;51.982;5.928;2022-07-01T01:34:11;101425.69;;;15.61;81.40
66945;BME280;53853;51.982;5.928;2022-07-01T01:36:44;101430.25;;;15.61;80.06
66945;BME280;53853;51.982;5.928;2022-07-01T01:39:14;101437.28;;;15.53;80.46
66945;BME280;53853;51.982;5.928;2022-07-01T01:41:44;101430.56;;;15.49;80.27
66945;BME280;53853;51.982;5.928;2022-07-01T01:44:14;101433.56;;;15.46;80.66
66945;BME280;53853;51.982;5.928;2022-07-01T01:46:45;101427.03;;;15.49;81.00
66945;BME280;53853;51.982;5.928;2022-07-01T01:49:15;101419.81;;;15.49;80.00
66945;BME280;53853;51.982;5.928;2022-07-01T01:51:47;101423.53;;;15.48;80.35
66945;BME280;53853;51.982;5.928;2022-07-01T01:54:17;101427.69;;;15.43;80.14
66945;BME280;53853;51.982;5.928;2022-07-01T01:56:47;101429.72;;;15.40;80.36
66945;BME280;53853;51.982;5.928;2022-07-01T01:59:17;101431.56;;;15.40;80.04
66945;BME280;53853;51.982;5.928;2022-07-01T02:01:47;101436.59;;;15.35;80.06
66945;BME280;53853;51.982;5.928;2022-07-01T02:04:17;101438.13;;;15.29;80.35
66945;BME280;53853;51.982;5.928;2022-07-01T02:06:50;101439.44;;;15.33;80.52
66945;BME280;53853;51.982;5.928;2022-07-01T02:09:20;101441.13;;;15.34;80.74
66945;BME280;53853;51.982;5.928;2022-07-01T02:11:50;101432.91;;;15.36;80.68
66945;BME280;53853;51.982;5.928;2022-07-01T02:14:20;101432.06;;;15.35;80.64
66945;BME280;53853;51.982;5.928;2022-07-01T02:16:50;101429.22;;;15.37;80.26
66945;BME280;53853;51.982;5.928;2022-07-01T02:19:20;101415.09;;;15.35;80.22
66945;BME280;53853;51.982;5.928;2022-07-01T02:21:53;101415.47;;;15.40;80.55
66945;BME280;53853;51.982;5.928;2022-07-01T02:24:22;101412.41;;;15.43;80.64
66945;BME280;53853;51.982;5.928;2022-07-01T02:26:53;101427.38;;;15.46;79.32
66945;BME280;53853;51.982;5.928;2022-07-01T02:29:23;101433.56;;;15.46;79.83
66945;BME280;53853;51.982;5.928;2022-07-01T02:31:53;101429.88;;;15.47;79.35
66945;BME280;53853;51.982;5.928;2022-07-01T02:34:23;101439.63;;;15.48;79.94
66945;BME280;53853;51.982;5.928;2022-07-01T02:36:55;101452.72;;;15.51;80.25
66945;BME280;53853;51.982;5.928;2022-07-01T02:39:25;101468.53;;;15.54;80.18
66945;BME280;53853;51.982;5.928;2022-07-01T02:41:55;101464.81;;;15.55;78.95
66945;BME280;53853;51.982;5.928;2022-07-01T02:44:38;101454.41;;;15.52;79.00
66945;BME280;53853;51.982;5.928;2022-07-01T02:47:08;101449.03;;;15.52;79.60
66945;BME280;53853;51.982;5.928;2022-07-01T02:49:38;101454.06;;;15.55;79.37
66945;BME280;53853;51.982;5.928;2022-07-01T02:52:11;101459.97;;;15.59;78.99
66945;BME280;53853;51.982;5.928;2022-07-01T02:54:42;101460.13;;;15.57;78.69
66945;BME280;53853;51.982;5.928;2022-07-01T02:57:12;101450.38;;;15.56;79.07
66945;BME280;53853;51.982;5.928;2022-07-01T02:59:42;101439.47;;;15.58;79.56
66945;BME280;53853;51.982;5.928;2022-07-01T03:02:12;101433.75;;;15.61;79.56
66945;BME280;53853;51.982;5.928;2022-07-01T03:04:41;101438.78;;;15.64;80.03
66945;BME280;53853;51.982;5.928;2022-07-01T03:07:14;101449.22;;;15.67;79.54
66945;BME280;53853;51.982;5.928;2022-07-01T03:09:45;101452.72;;;15.68;79.08
66945;BME280;53853;51.982;5.928;2022-07-01T03:12:15;101457.94;;;15.61;78.97
66945;BME280;53853;51.982;5.928;2022-07-01T03:15:03;101449.53;;;15.56;78.67
66945;BME280;53853;51.982;5.928;2022-07-01T03:17:35;101448.03;;;15.53;78.99
66945;BME280;53853;51.982;5.928;2022-07-01T03:20:06;101456.75;;;15.47;78.68
66945;BME280;53853;51.982;5.928;2022-07-01T03:22:39;101457.06;;;15.44;78.95
66945;BME280;53853;51.982;5.928;2022-07-01T03:25:10;101470.50;;;15.44;78.63
66945;BME280;53853;51.982;5.928;2022-07-01T03:27:40;101470.84;;;15.41;78.59
66945;BME280;53853;51.982;5.928;2022-07-01T03:30:12;101471.66;;;15.33;77.67
66945;BME280;53853;51.982;5.928;2022-07-01T03:32:45;101464.09;;;15.29;78.64
66945;BME280;53853;51.982;5.928;2022-07-01T03:35:15;101486.28;;;15.23;79.18
66945;BME280;53853;51.982;5.928;2022-07-01T03:38:00;101491.66;;;15.23;79.09
66945;BME280;53853;51.982;5.928;2022-07-01T03:40:30;101482.91;;;15.20;79.44
66945;BME280;53853;51.982;5.928;2022-07-01T03:43:00;101486.28;;;15.23;78.67
66945;BME280;53853;51.982;5.928;2022-07-01T03:45:30;101480.22;;;15.20;78.75
66945;BME280;53853;51.982;5.928;2022-07-01T03:48:00;101487.09;;;15.15;79.25
66945;BME280;53853;51.982;5.928;2022-07-01T03:50:30;101482.22;;;15.18;79.33
66945;BME280;53853;51.982;5.928;2022-07-01T03:53:02;101486.94;;;15.16;78.82
66945;BME280;53853;51.982;5.928;2022-07-01T03:55:45;101493.13;;;15.09;79.28
66945;BME280;53853;51.982;5.928;2022-07-01T03:58:15;101507.19;;;15.02;79.39
66945;BME280;53853;51.982;5.928;2022-07-01T04:00:44;101502.63;;;14.95;79.41
66945;BME280;53853;51.982;5.928;2022-07-01T04:03:14;101510.16;;;14.91;80.01
66945;BME280;53853;51.982;5.928;2022-07-01T04:05:44;101508.00;;;14.95;80.07
66945;BME280;53853;51.982;5.928;2022-07-01T04:08:17;101513.88;;;14.98;80.24
66945;BME280;53853;51.982;5.928;2022-07-01T04:10:46;101521.41;;;14.95;79.66
66945;BME280;53853;51.982;5.928;2022-07-01T04:13:20;101520.09;;;14.99;80.37
66945;BME280;53853;51.982;5.928;2022-07-01T04:15:50;101531.19;;;15.04;80.76
66945;BME280;53853;51.982;5.928;2022-07-01T04:18:20;101529.66;;;15.10;80.29
66945;BME280;53853;51.982;5.928;2022-07-01T04:20:50;101538.44;;;15.12;79.95
66945;BME280;53853;51.982;5.928;2022-07-01T04:23:35;101528.50;;;15.12;80.45
66945;BME280;53853;51.982;5.928;2022-07-01T04:26:05;101531.88;;;15.14;79.96
66945;BME280;53853;51.982;5.928;2022-07-01T04:28:36;101536.75;;;15.19;80.04
66945;BME280;53853;51.982;5.928;2022-07-01T04:31:05;101526.72;;;15.21;79.90
66945;BME280;53853;51.982;5.928;2022-07-01T04:33:35;101527.72;;;15.20;78.94
66945;BME280;53853;51.982;5.928;2022-07-01T04:36:05;101529.22;;;15.23;79.37
66945;BME280;53853;51.982;5.928;2022-07-01T04:38:38;101532.59;;;15.25;79.66
66945;BME280;53853;51.982;5.928;2022-07-01T04:41:08;101532.25;;;15.28;78.85
66945;BME280;53853;51.982;5.928;2022-07-01T04:43:50;101536.28;;;15.32;79.56
66945;BME280;53853;51.982;5.928;2022-07-01T04:46:20;101519.34;;;15.39;79.14
66945;BME280;53853;51.982;5.928;2022-07-01T04:48:50;101529.94;;;15.41;78.65
66945;BME280;53853;51.982;5.928;2022-07-01T04:51:19;101542.38;;;15.42;79.39
66945;BME280;53853;51.982;5.928;2022-07-01T04:53:52;101543.34;;;15.41;79.15
66945;BME280;53853;51.982;5.928;2022-07-01T04:56:22;101545.88;;;15.43;78.42
66945;BME280;53853;51.982;5.928;2022-07-01T04:58:53;101560.34;;;15.42;78.95
66945;BME280;53853;51.982;5.928;2022-07-01T05:01:23;101560.84;;;15.45;79.17
66945;BME280;53853;51.982;5.928;2022-07-01T05:03:54;101562.50;;;15.46;79.06
66945;BME280;53853;51.982;5.928;2022-07-01T05:06:24;101555.47;;;15.53;78.39
66945;BME280;53853;51.982;5.928;2022-07-01T05:08:57;101550.94;;;15.54;78.14
66945;BME280;53853;51.982;5.928;2022-07-01T05:11:27;101549.94;;;15.55;78.57
66945;BME280;53853;51.982;5.928;2022-07-01T05:13:57;101552.31;;;15.58;77.83
66945;BME280;53853;51.982;5.928;2022-07-01T05:16:26;101544.25;;;15.58;78.02
66945;BME280;53853;51.982;5.928;2022-07-01T05:18:56;101536.84;;;15.60;76.86
66945;BME280;53853;51.982;5.928;2022-07-01T05:21:39;101540.03;;;15.55;77.00
66945;BME280;53853;51.982;5.928;2022-07-01T05:24:24;101552.63;;;15.55;76.96
66945;BME280;53853;51.982;5.928;2022-07-01T05:26:55;101555.00;;;15.58;76.65
66945;BME280;53853;51.982;5.928;2022-07-01T05:29:25;101547.91;;;15.57;76.55
66945;BME280;53853;51.982;5.928;2022-07-01T05:31:55;101545.22;;;15.57;76.39
66945;BME280;53853;51.982;5.928;2022-07-01T05:34:25;101545.41;;;15.55;75.74
66945;BME280;53853;51.982;5.928;2022-07-01T05:36:55;101552.13;;;15.60;76.38
66945;BME280;53853;51.982;5.928;2022-07-01T05:39:27;101554.50;;;15.63;76.02
66945;BME280;53853;51.982;5.928;2022-07-01T05:41:57;101556.31;;;15.62;75.25
66945;BME280;53853;51.982;5.928;2022-07-01T05:44:27;101550.94;;;15.54;75.87
66945;BME280;53853;51.982;5.928;2022-07-01T05:46:57;101546.44;;;15.54;76.08
66945;BME280;53853;51.982;5.928;2022-07-01T05:49:27;101547.59;;;15.52;75.12
66945;BME280;53853;51.982;5.928;2022-07-01T05:51:56;101553.94;;;15.51;76.17
66945;BME280;53853;51.982;5.928;2022-07-01T05:54:29;101556.16;;;15.55;75.32
66945;BME280;53853;51.982;5.928;2022-07-01T05:56:59;101552.78;;;15.53;75.16
66945;BME280;53853;51.982;5.928;2022-07-01T05:59:28;101543.53;;;15.48;75.23
66945;BME280;53853;51.982;5.928;2022-07-01T06:01:58;101538.00;;;15.49;75.96
66945;BME280;53853;51.982;5.928;2022-07-01T06:04:28;101534.16;;;15.52;75.83
66945;BME280;53853;51.982;5.928;2022-07-01T06:06:58;101538.03;;;15.57;75.82
66945;BME280;53853;51.982;5.928;2022-07-01T06:09:31;101543.41;;;15.66;76.22
66945;BME280;53853;51.982;5.928;2022-07-01T06:12:01;101545.09;;;15.75;76.26
66945;BME280;53853;51.982;5.928;2022-07-01T06:14:31;101547.13;;;15.81;75.53
66945;BME280;53853;51.982;5.928;2022-07-01T06:17:00;101552.88;;;15.78;74.89
66945;BME280;53853;51.982;5.928;2022-07-01T06:19:30;101547.66;;;15.77;74.74
66945;BME280;53853;51.982;5.928;2022-07-01T06:22:00;101542.44;;;15.75;74.24
66945;BME280;53853;51.982;5.928;2022-07-01T06:24:33;101538.56;;;15.78;75.04
66945;BME280;53853;51.982;5.928;2022-07-01T06:27:03;101541.09;;;15.79;74.61
66945;BME280;53853;51.982;5.928;2022-07-01T06:29:34;101538.56;;;15.78;74.38
66945;BME280;53853;51.982;5.928;2022-07-01T06:32:05;101547.84;;;15.83;75.63
66945;BME280;53853;51.982;5.928;2022-07-01T06:34:35;101544.97;;;16.01;76.30
66945;BME280;53853;51.982;5.928;2022-07-01T06:37:06;101536.03;;;16.25;75.94
66945;BME280;53853;51.982;5.928;2022-07-01T06:39:38;101541.72;;;16.47;75.76
66945;BME280;53853;51.982;5.928;2022-07-01T06:42:08;101548.06;;;16.71;74.35
66945;BME280;53853;51.982;5.928;2022-07-01T06:44:38;101543.97;;;16.83;73.21
66945;BME280;53853;51.982;5.928;2022-07-01T06:47:08;101546.50;;;16.76;71.34
66945;BME280;53853;51.982;5.928;2022-07-01T06:49:38;101556.13;;;16.71;72.13
66945;BME280;53853;51.982;5.928;2022-07-01T06:52:08;101559.81;;;16.86;71.72
66945;BME280;53853;51.982;5.928;2022-07-01T06:54:41;101562.00;;;16.91;70.69
66945;BME280;53853;51.982;5.928;2022-07-01T06:57:11;101554.75;;;16.83;70.75
66945;BME280;53853;51.982;5.928;2022-07-01T06:59:41;101564.03;;;16.72;70.37
66945;BME280;53853;51.982;5.928;2022-07-01T07:02:11;101568.44;;;16.57;71.22
66945;BME280;53853;51.982;5.928;2022-07-01T07:04:41;101571.97;;;16.57;72.26
66945;BME280;53853;51.982;5.928;2022-07-01T07:07:11;101580.72;;;16.59;71.80
66945;BME280;53853;51.982;5.928;2022-07-01T07:09:43;101580.22;;;16.64;71.07
66945;BME280;53853;51.982;5.928;2022-07-01T07:12:13;101576.97;;;16.77;72.33
66945;BME280;53853;51.982;5.928;2022-07-01T07:14:43;101577.78;;;16.94;70.16
66945;BME280;53853;51.982;5.928;2022-07-01T07:17:13;101574.72;;;16.97;70.72
66945;BME280;53853;51.982;5.928;2022-07-01T07:19:43;101583.66;;;16.97;69.82
66945;BME280;53853;51.982;5.928;2022-07-01T07:22:13;101578.94;;;16.99;68.46
66945;BME280;53853;51.982;5.928;2022-07-01T07:24:45;101576.28;;;16.91;69.63
66945;BME280;53853;51.982;5.928;2022-07-01T07:27:15;101572.88;;;17.06;70.60
66945;BME280;53853;51.982;5.928;2022-07-01T07:29:45;101575.13;;;17.25;71.35
66945;BME280;53853;51.982;5.928;2022-07-01T07:32:15;101583.16;;;17.33;68.00
66945;BME280;53853;51.982;5.928;2022-07-01T07:34:44;101582.81;;;17.36;69.36
66945;BME280;53853;51.982;5.928;2022-07-01T07:37:14;101586.44;;;17.52;69.40
66945;BME280;53853;51.982;5.928;2022-07-01T07:39:47;101591.41;;;17.63;67.00
66945;BME280;53853;51.982;5.928;2022-07-01T07:42:17;101588.44;;;17.58;67.30
66945;BME280;53853;51.982;5.928;2022-07-01T07:44:46;101591.47;;;17.55;67.91
66945;BME280;53853;51.982;5.928;2022-07-01T07:47:16;101589.78;;;17.54;66.76
66945;BME280;53853;51.982;5.928;2022-07-01T07:49:46;101605.94;;;17.62;66.74
66945;BME280;53853;51.982;5.928;2022-07-01T07:52:16;101608.88;;;17.75;67.27
66945;BME280;53853;51.982;5.928;2022-07-01T07:54:48;101604.44;;;17.83;67.03
66945;BME280;53853;51.982;5.928;2022-07-01T07:57:18;101610.19;;;17.80;66.05
66945;BME280;53853;51.982;5.928;2022-07-01T07:59:48;101606.25;;;17.90;67.01
66945;BME280;53853;51.982;5.928;2022-07-01T08:02:18;101599.44;;;18.03;65.63
66945;BME280;53853;51.982;5.928;2022-07-01T08:04:48;101600.69;;;18.15;66.26
66945;BME280;53853;51.982;5.928;2022-07-01T08:07:18;101606.13;;;18.30;67.03
66945;BME280;53853;51.982;5.928;2022-07-01T08:09:50;101604.56;;;18.51;66.59
66945;BME280;53853;51.982;5.928;2022-07-01T08:12:21;101602.47;;;18.61;63.80
66945;BME280;53853;51.982;5.928;2022-07-01T08:14:53;101617.38;;;18.72;62.89
66945;BME280;53853;51.982;5.928;2022-07-01T08:17:22;101619.53;;;18.76;64.50
66945;BME280;53853;51.982;5.928;2022-07-01T08:19:53;101611.63;;;18.90;63.37
66945;BME280;53853;51.982;5.928;2022-07-01T08:22:23;101612.72;;;18.80;62.47
66945;BME280;53853;51.982;5.928;2022-07-01T08:24:55;101620.19;;;18.93;63.84
66945;BME280;53853;51.982;5.928;2022-07-01T08:27:25;101618.16;;;19.10;63.91
66945;BME280;53853;51.982;5.928;2022-07-01T08:29:55;101627.47;;;19.23;63.77
66945;BME280;53853;51.982;5.928;2022-07-01T08:32:25;101625.28;;;19.33;61.98
66945;BME280;53853;51.982;5.928;2022-07-01T08:34:57;101632.47;;;19.41;62.23
66945;BME280;53853;51.982;5.928;2022-07-01T08:37:27;101631.19;;;19.22;58.81
66945;BME280;53853;51.982;5.928;2022-07-01T08:40:00;101634.44;;;19.17;59.25
66945;BME280;53853;51.982;5.928;2022-07-01T08:42:30;101640.50;;;19.04;60.67
66945;BME280;53853;51.982;5.928;2022-07-01T08:45:00;101640.59;;;19.11;61.91
66945;BME280;53853;51.982;5.928;2022-07-01T08:47:30;101646.50;;;19.14;61.49
66945;BME280;53853;51.982;5.928;2022-07-01T08:50:01;101651.69;;;19.31;61.46
66945;BME280;53853;51.982;5.928;2022-07-01T08:52:31;101663.81;;;19.35;60.45
66945;BME280;53853;51.982;5.928;2022-07-01T08:55:05;101659.88;;;19.52;62.26
66945;BME280;53853;51.982;5.928;2022-07-01T08:57:35;101657.56;;;19.71;58.47
66945;BME280;53853;51.982;5.928;2022-07-01T09:00:06;101651.53;;;19.69;59.06
66945;BME280;53853;51.982;5.928;2022-07-01T09:02:58;101651.25;;;19.79;57.13
66945;BME280;53853;51.982;5.928;2022-07-01T09:05:31;101650.78;;;19.75;56.73
66945;BME280;53853;51.982;5.928;2022-07-01T09:08:03;101661.88;;;19.80;54.92
66945;BME280;53853;51.982;5.928;2022-07-01T09:10:36;101664.50;;;19.59;55.42
66945;BME280;53853;51.982;5.928;2022-07-01T09:13:07;101649.06;;;19.52;55.04
66945;BME280;53853;51.982;5.928;2022-07-01T09:15:39;101661.19;;;19.27;55.18
66945;BME280;53853;51.982;5.928;2022-07-01T09:18:12;101655.31;;;19.23;57.20
66945;BME280;53853;51.982;5.928;2022-07-01T09:20:44;101666.22;;;19.15;55.87
66945;BME280;53853;51.982;5.928;2022-07-01T09:23:16;101650.66;;;19.17;57.44
66945;BME280;53853;51.982;5.928;2022-07-01T09:25:50;101659.16;;;19.29;56.05
66945;BME280;53853;51.982;5.928;2022-07-01T09:28:20;101652.59;;;19.38;57.38
66945;BME280;53853;51.982;5.928;2022-07-01T09:30:51;101654.66;;;19.51;56.99
66945;BME280;53853;51.982;5.928;2022-07-01T09:33:23;101660.84;;;19.66;56.93
66945;BME280;53853;51.982;5.928;2022-07-01T09:35:55;101657.56;;;19.71;54.58
66945;BME280;53853;51.982;5.928;2022-07-01T09:38:26;101661.25;;;19.78;55.78
66945;BME280;53853;51.982;5.928;2022-07-01T09:41:00;101662.00;;;19.94;52.70
66945;BME280;53853;51.982;5.928;2022-07-01T09:43:31;101662.28;;;19.99;53.21
66945;BME280;53853;51.982;5.928;2022-07-01T09:46:03;101666.66;;;20.00;51.23
66945;BME280;53853;51.982;5.928;2022-07-01T09:48:44;101667.91;;;19.97;51.88
66945;BME280;53853;51.982;5.928;2022-07-01T09:51:15;101674.50;;;19.95;52.07
66945;BME280;53853;51.982;5.928;2022-07-01T09:53:45;101684.69;;;19.93;51.03
66945;BME280;53853;51.982;5.928;2022-07-01T09:56:19;101682.50;;;20.03;49.67
66945;BME280;53853;51.982;5.928;2022-07-01T09:58:49;101685.75;;;20.13;50.90
66945;BME280;53853;51.982;5.928;2022-07-01T10:01:19;101689.91;;;20.16;49.89
66945;BME280;53853;51.982;5.928;2022-07-01T10:03:49;101689.34;;;20.20;50.58
66945;BME280;53853;51.982;5.928;2022-07-01T10:06:37;101685.28;;;20.31;50.90
66945;BME280;53853;51.982;5.928;2022-07-01T10:09:21;101692.44;;;20.39;51.23
66945;BME280;53853;51.982;5.928;2022-07-01T10:15:06;101698.88;;;20.38;47.29
66945;BME280;53853;51.982;5.928;2022-07-01T10:17:42;101695.94;;;20.33;48.82
66945;BME280;53853;51.982;5.928;2022-07-01T10:20:14;101702.63;;;20.37;49.76
66945;BME280;53853;51.982;5.928;2022-07-01T10:22:45;101698.06;;;20.37;49.01
66945;BME280;53853;51.982;5.928;2022-07-01T10:25:38;101697.47;;;20.42;48.97
66945;BME280;53853;51.982;5.928;2022-07-01T10:28:25;101702.94;;;20.49;48.19
66945;BME280;53853;51.982;5.928;2022-07-01T10:31:01;101703.28;;;20.60;48.52
66945;BME280;53853;51.982;5.928;2022-07-01T10:33:40;101693.06;;;20.62;47.69
66945;BME280;53853;51.982;5.928;2022-07-01T10:36:12;101709.22;;;20.71;47.78
66945;BME280;53853;51.982;5.928;2022-07-01T10:39:11;101705.72;;;20.77;48.98
66945;BME280;53853;51.982;5.928;2022-07-01T10:42:02;101700.34;;;20.84;49.43
66945;BME280;53853;51.982;5.928;2022-07-01T10:44:37;101694.84;;;20.98;48.24
66945;BME280;53853;51.982;5.928;2022-07-01T10:47:07;101692.75;;;21.01;47.65
66945;BME280;53853;51.982;5.928;2022-07-01T10:49:53;101694.84;;;20.98;47.38
66945;BME280;53853;51.982;5.928;2022-07-01T10:52:24;101681.69;;;20.95;46.36
66945;BME280;53853;51.982;5.928;2022-07-01T10:54:56;101683.53;;;20.95;47.01
66945;BME280;53853;51.982;5.928;2022-07-01T10:57:33;101687.97;;;21.03;47.89
66945;BME280;53853;51.982;5.928;2022-07-01T11:00:28;101688.44;;;21.06;46.76
66945;BME280;53853;51.982;5.928;2022-07-01T11:03:10;101695.31;;;21.09;46.19
66945;BME280;53853;51.982;5.928;2022-07-01T11:05:41;101703.63;;;21.07;45.25
66945;BME280;53853;51.982;5.928;2022-07-01T11:08:12;101699.69;;;21.10;45.01
66945;BME280;53853;51.982;5.928;2022-07-01T11:10:42;101709.28;;;21.12;46.48
66945;BME280;53853;51.982;5.928;2022-07-01T11:13:14;101706.16;;;21.09;45.24
66945;BME280;53853;51.982;5.928;2022-07-01T11:15:48;101707.53;;;20.98;44.29
66945;BME280;53853;51.982;5.928;2022-07-01T11:18:19;101710.34;;;20.83;45.60
66945;BME280;53853;51.982;5.928;2022-07-01T11:20:49;101703.91;;;20.84;47.21
66945;BME280;53853;51.982;5.928;2022-07-01T11:23:21;101702.06;;;20.91;44.76
66945;BME280;53853;51.982;5.928;2022-07-01T11:25:51;101696.19;;;20.81;45.30
66945;BME280;53853;51.982;5.928;2022-07-01T11:28:21;101703.25;;;20.82;44.80
66945;BME280;53853;51.982;5.928;2022-07-01T11:31:01;101711.53;;;20.74;43.66
66945;BME280;53853;51.982;5.928;2022-07-01T11:33:31;101697.19;;;20.80;46.49
66945;BME280;53853;51.982;5.928;2022-07-01T11:36:01;101694.88;;;21.05;47.20
66945;BME280;53853;51.982;5.928;2022-07-01T11:38:47;101697.09;;;21.30;47.20
66945;BME280;53853;51.982;5.928;2022-07-01T11:41:35;101682.66;;;21.51;45.09
66945;BME280;53853;51.982;5.928;2022-07-01T11:44:05;101685.78;;;21.55;43.89
66945;BME280;53853;51.982;5.928;2022-07-01T11:46:37;101688.16;;;21.36;44.32
66945;BME280;53853;51.982;5.928;2022-07-01T11:49:12;101689.41;;;21.33;45.43
66945;BME280;53853;51.982;5.928;2022-07-01T11:51:55;101686.03;;;21.31;43.66
66945;BME280;53853;51.982;5.928;2022-07-01T11:54:25;101681.38;;;21.18;44.76
66945;BME280;53853;51.982;5.928;2022-07-01T11:56:55;101676.88;;;21.32;45.10
66945;BME280;53853;51.982;5.928;2022-07-01T11:59:36;101675.28;;;21.45;44.48
66945;BME280;53853;51.982;5.928;2022-07-01T12:02:10;101684.97;;;21.54;43.18
66945;BME280;53853;51.982;5.928;2022-07-01T12:04:41;101670.16;;;21.63;43.92
66945;BME280;53853;51.982;5.928;2022-07-01T12:07:12;101677.06;;;21.66;43.21
66945;BME280;53853;51.982;5.928;2022-07-01T12:09:43;101677.88;;;21.66;42.62
66945;BME280;53853;51.982;5.928;2022-07-01T12:12:17;101680.19;;;21.69;43.64
66945;BME280;53853;51.982;5.928;2022-07-01T12:14:52;101676.91;;;21.81;44.86
66945;BME280;53853;51.982;5.928;2022-07-01T12:17:25;101668.78;;;21.87;41.73
66945;BME280;53853;51.982;5.928;2022-07-01T12:19:55;101675.84;;;21.82;43.20
66945;BME280;53853;51.982;5.928;2022-07-01T12:22:26;101678.81;;;21.94;43.91
66945;BME280;53853;51.982;5.928;2022-07-01T12:25:06;101680.31;;;22.10;43.72
66945;BME280;53853;51.982;5.928;2022-07-01T12:27:38;101673.84;;;22.11;42.45
66945;BME280;53853;51.982;5.928;2022-07-01T12:30:11;101677.16;;;22.06;42.03
66945;BME280;53853;51.982;5.928;2022-07-01T12:33:08;101690.91;;;21.84;41.76
66945;BME280;53853;51.982;5.928;2022-07-01T12:35:40;101689.63;;;21.87;43.60
66945;BME280;53853;51.982;5.928;2022-07-01T12:38:15;101687.16;;;21.92;42.60
66945;BME280;53853;51.982;5.928;2022-07-01T12:40:45;101678.41;;;21.97;43.18
66945;BME280;53853;51.982;5.928;2022-07-01T12:43:25;101683.41;;;21.93;42.93
66945;BME280;53853;51.982;5.928;2022-07-01T12:45:59;101690.31;;;21.96;42.98
66945;BME280;53853;51.982;5.928;2022-07-01T12:48:48;101703.06;;;21.95;43.47
66945;BME280;53853;51.982;5.928;2022-07-01T12:51:18;101687.38;;;21.91;42.51
66945;BME280;53853;51.982;5.928;2022-07-01T12:53:48;101697.56;;;21.82;42.25
66945;BME280;53853;51.982;5.928;2022-07-01T12:56:25;101695.03;;;21.74;43.19
66945;BME280;53853;51.982;5.928;2022-07-01T12:58:56;101691.28;;;21.75;44.02
66945;BME280;53853;51.982;5.928;2022-07-01T13:01:25;101697.38;;;21.90;44.34
66945;BME280;53853;51.982;5.928;2022-07-01T13:03:58;101686.75;;;21.95;43.09
66945;BME280;53853;51.982;5.928;2022-07-01T13:06:28;101699.06;;;21.91;43.88
66945;BME280;53853;51.982;5.928;2022-07-01T13:08:57;101696.56;;;22.03;40.87
66945;BME280;53853;51.982;5.928;2022-07-01T13:11:27;101691.59;;;22.06;41.43
66945;BME280;53853;51.982;5.928;2022-07-01T13:13:57;101695.13;;;22.14;41.92
66945;BME280;53853;51.982;5.928;2022-07-01T13:16:27;101697.44;;;22.17;40.30
66945;BME280;53853;51.982;5.928;2022-07-01T13:19:00;101703.88;;;22.02;40.49